createdAt,value
2018-06-16T00:00:05.870Z,17.31
2018-06-16T00:01:06.881Z,17.31
2018-06-16T00:02:05.868Z,17.31
2018-06-16T00:03:05.779Z,17.38
2018-06-16T00:04:05.668Z,17.38
2018-06-16T00:05:05.878Z,17.38
2018-06-16T00:06:06.630Z,17.38
2018-06-16T00:07:06.433Z,17.38
2018-06-16T00:08:06.161Z,17.38
2018-06-16T00:09:05.974Z,17.38
2018-06-16T00:10:06.310Z,17.38
2018-06-16T00:11:06.479Z,17.38
2018-06-16T00:12:05.627Z,17.38
2018-06-16T00:13:05.859Z,17.44
2018-06-16T00:14:06.154Z,17.44
2018-06-16T00:15:11.043Z,17.44
2018-06-16T00:16:06.516Z,17.44
2018-06-16T00:17:06.432Z,17.44
2018-06-16T00:18:06.186Z,17.44
2018-06-16T00:19:05.929Z,17.44
2018-06-16T00:20:06.263Z,17.44
2018-06-16T00:21:06.262Z,17.44
2018-06-16T00:22:06.417Z,17.44
2018-06-16T00:23:05.461Z,17.44
2018-06-16T00:24:06.375Z,17.44
2018-06-16T00:25:11.138Z,17.44
2018-06-16T00:26:11.047Z,17.50
2018-06-16T00:27:05.780Z,17.50
2018-06-16T00:28:05.950Z,17.50
2018-06-16T00:29:06.771Z,17.50
2018-06-16T00:30:06.482Z,17.50
2018-06-16T00:31:06.114Z,17.50
2018-06-16T00:32:06.017Z,17.50
2018-06-16T00:33:06.217Z,17.50
2018-06-16T00:34:06.441Z,17.50
2018-06-16T00:35:06.816Z,17.56
2018-06-16T00:36:05.868Z,17.50
2018-06-16T00:37:05.739Z,17.50
2018-06-16T00:38:05.963Z,17.50
2018-06-16T00:39:06.852Z,17.50
2018-06-16T00:40:06.374Z,17.50
2018-06-16T00:41:06.496Z,17.50
2018-06-16T00:42:06.059Z,17.50
2018-06-16T00:43:06.318Z,17.50
2018-06-16T00:44:06.500Z,17.50
2018-06-16T00:45:06.689Z,17.50
2018-06-16T00:46:06.112Z,17.50
2018-06-16T00:47:06.867Z,17.50
2018-06-16T00:48:05.968Z,17.50
2018-06-16T00:49:05.593Z,17.50
2018-06-16T00:50:06.648Z,17.50
2018-06-16T00:51:10.951Z,17.50
2018-06-16T00:52:05.628Z,17.50
2018-06-16T00:53:06.164Z,17.50
2018-06-16T00:54:06.087Z,17.50
2018-06-16T00:55:05.910Z,17.56
2018-06-16T00:56:05.706Z,17.56
2018-06-16T00:57:06.409Z,17.50
2018-06-16T00:58:05.900Z,17.50
2018-06-16T00:59:06.362Z,17.50
2018-06-16T01:00:10.938Z,17.50
2018-06-16T01:01:06.497Z,17.50
2018-06-16T01:02:06.579Z,17.50
2018-06-16T01:03:06.343Z,17.50
2018-06-16T01:04:05.895Z,17.50
2018-06-16T01:05:06.086Z,17.50
2018-06-16T01:06:06.555Z,17.50
2018-06-16T01:07:06.253Z,17.50
2018-06-16T01:08:06.110Z,17.50
2018-06-16T01:09:05.986Z,17.50
2018-06-16T01:10:05.865Z,17.50
2018-06-16T01:11:05.780Z,17.50
2018-06-16T01:12:05.860Z,17.50
2018-06-16T01:13:06.726Z,17.50
2018-06-16T01:14:06.306Z,17.50
2018-06-16T01:15:06.981Z,17.56
2018-06-16T01:16:06.258Z,17.50
2018-06-16T01:17:07.138Z,17.50
2018-06-16T01:18:06.139Z,17.50
2018-06-16T01:19:06.078Z,17.50
2018-06-16T01:20:05.952Z,17.50
2018-06-16T01:21:05.751Z,17.50
2018-06-16T01:22:05.544Z,17.50
2018-06-16T01:23:06.466Z,17.50
2018-06-16T01:24:06.090Z,17.50
2018-06-16T01:25:06.444Z,17.50
2018-06-16T01:26:06.114Z,17.50
2018-06-16T01:27:06.129Z,17.50
2018-06-16T01:28:06.520Z,17.56
2018-06-16T01:29:06.478Z,17.56
2018-06-16T01:30:06.171Z,17.56
2018-06-16T01:31:06.346Z,17.56
2018-06-16T01:32:06.251Z,17.56
2018-06-16T01:33:05.787Z,17.56
2018-06-16T01:34:05.697Z,17.56
2018-06-16T01:35:05.915Z,17.56
2018-06-16T01:36:05.685Z,17.56
2018-06-16T01:37:06.447Z,17.56
2018-06-16T01:38:06.383Z,17.56
2018-06-16T01:39:06.328Z,17.56
2018-06-16T01:40:06.070Z,17.56
2018-06-16T01:41:06.173Z,17.56
2018-06-16T01:42:06.832Z,17.56
2018-06-16T01:43:10.614Z,17.56
2018-06-16T01:44:06.183Z,17.56
2018-06-16T01:45:06.328Z,17.56
2018-06-16T01:46:06.259Z,17.56
2018-06-16T01:47:05.694Z,17.56
2018-06-16T01:48:06.272Z,17.56
2018-06-16T01:49:05.927Z,17.56
2018-06-16T01:50:05.975Z,17.56
2018-06-16T01:51:05.972Z,17.56
2018-06-16T01:52:06.765Z,17.56
2018-06-16T01:53:06.091Z,17.56
2018-06-16T01:54:06.315Z,17.56
2018-06-16T01:55:05.746Z,17.56
2018-06-16T01:56:06.672Z,17.56
2018-06-16T01:57:06.447Z,17.56
2018-06-16T01:58:05.773Z,17.56
2018-06-16T01:59:05.697Z,17.56
2018-06-16T02:00:06.642Z,17.56
2018-06-16T02:01:05.889Z,17.56
2018-06-16T02:02:05.853Z,17.56
2018-06-16T02:03:06.140Z,17.56
2018-06-16T02:04:06.749Z,17.56
2018-06-16T02:05:06.506Z,17.56
2018-06-16T02:06:05.535Z,17.56
2018-06-16T02:07:06.412Z,17.56
2018-06-16T02:08:05.935Z,17.56
2018-06-16T02:09:06.042Z,17.56
2018-06-16T02:10:06.051Z,17.56
2018-06-16T02:11:06.627Z,17.56
2018-06-16T02:12:06.123Z,17.56
2018-06-16T02:13:06.815Z,17.56
2018-06-16T02:14:06.097Z,17.56
2018-06-16T02:15:06.176Z,17.56
2018-06-16T02:16:06.144Z,17.56
2018-06-16T02:17:05.943Z,17.56
2018-06-16T02:18:06.618Z,17.56
2018-06-16T02:19:06.165Z,17.56
2018-06-16T02:20:06.260Z,17.56
2018-06-16T02:21:10.709Z,17.56
2018-06-16T02:22:06.273Z,17.50
2018-06-16T02:23:06.271Z,17.50
2018-06-16T02:24:11.022Z,17.50
2018-06-16T02:25:05.786Z,17.50
2018-06-16T02:26:05.533Z,17.50
2018-06-16T02:27:06.260Z,17.50
2018-06-16T02:28:05.535Z,17.50
2018-06-16T02:29:06.018Z,17.50
2018-06-16T02:30:05.936Z,17.50
2018-06-16T02:31:05.704Z,17.50
2018-06-16T02:32:06.505Z,17.50
2018-06-16T02:33:06.165Z,17.50
2018-06-16T02:34:05.706Z,17.50
2018-06-16T02:35:05.615Z,17.50
2018-06-16T02:36:05.706Z,17.50
2018-06-16T02:37:07.001Z,17.50
2018-06-16T02:38:06.252Z,17.50
2018-06-16T02:39:05.790Z,17.50
2018-06-16T02:40:05.759Z,17.50
2018-06-16T02:41:05.512Z,17.56
2018-06-16T02:42:06.133Z,17.56
2018-06-16T02:43:06.039Z,17.56
2018-06-16T02:44:05.730Z,17.56
2018-06-16T02:45:05.649Z,17.50
2018-06-16T02:46:06.440Z,17.50
2018-06-16T02:47:06.394Z,17.50
2018-06-16T02:48:06.443Z,17.50
2018-06-16T02:49:05.959Z,17.50
2018-06-16T02:50:06.514Z,17.50
2018-06-16T02:51:06.444Z,17.50
2018-06-16T02:52:05.537Z,17.50
2018-06-16T02:53:06.547Z,17.56
2018-06-16T02:54:06.637Z,17.56
2018-06-16T02:55:06.498Z,17.56
2018-06-16T02:56:05.548Z,17.56
2018-06-16T02:57:11.627Z,17.56
2018-06-16T02:58:05.914Z,17.56
2018-06-16T02:59:06.273Z,17.50
2018-06-16T03:00:06.017Z,17.56
2018-06-16T03:01:05.602Z,17.56
2018-06-16T03:02:05.701Z,17.50
2018-06-16T03:03:06.323Z,17.50
2018-06-16T03:04:06.181Z,17.50
2018-06-16T03:05:05.998Z,17.50
2018-06-16T03:06:06.107Z,17.50
2018-06-16T03:07:06.334Z,17.50
2018-06-16T03:08:06.826Z,17.50
2018-06-16T03:09:06.427Z,17.50
2018-06-16T03:10:11.016Z,17.50
2018-06-16T03:11:05.713Z,17.50
2018-06-16T03:12:05.802Z,17.50
2018-06-16T03:13:05.958Z,17.50
2018-06-16T03:14:05.873Z,17.50
2018-06-16T03:15:05.713Z,17.50
2018-06-16T03:16:06.007Z,17.50
2018-06-16T03:17:06.120Z,17.50
2018-06-16T03:18:05.796Z,17.50
2018-06-16T03:19:06.436Z,17.50
2018-06-16T03:20:05.917Z,17.50
2018-06-16T03:21:05.710Z,17.50
2018-06-16T03:22:05.640Z,17.50
2018-06-16T03:23:06.824Z,17.50
2018-06-16T03:24:05.851Z,17.50
2018-06-16T03:25:05.959Z,17.50
2018-06-16T03:26:06.020Z,17.50
2018-06-16T03:27:10.865Z,17.50
2018-06-16T03:28:06.355Z,17.50
2018-06-16T03:29:06.421Z,17.44
2018-06-16T03:30:06.605Z,17.44
2018-06-16T03:31:11.296Z,17.50
2018-06-16T03:32:05.864Z,17.50
2018-06-16T03:33:05.618Z,17.50
2018-06-16T03:34:05.959Z,17.50
2018-06-16T03:35:06.418Z,17.50
2018-06-16T03:36:06.342Z,17.50
2018-06-16T03:37:06.386Z,17.50
2018-06-16T03:38:05.915Z,17.50
2018-06-16T03:39:07.090Z,17.50
2018-06-16T03:40:05.880Z,17.50
2018-06-16T03:41:05.536Z,17.50
2018-06-16T03:42:06.142Z,17.50
2018-06-16T03:43:05.949Z,17.50
2018-06-16T03:44:06.849Z,17.50
2018-06-16T03:45:05.445Z,17.50
2018-06-16T03:46:06.154Z,17.50
2018-06-16T03:47:06.439Z,17.50
2018-06-16T03:48:06.439Z,17.44
2018-06-16T03:49:06.506Z,17.50
2018-06-16T03:50:11.354Z,17.50
2018-06-16T03:51:06.700Z,17.44
2018-06-16T03:52:06.965Z,17.44
2018-06-16T03:53:05.586Z,17.50
2018-06-16T03:54:05.995Z,17.50
2018-06-16T03:55:06.395Z,17.50
2018-06-16T03:56:06.508Z,17.50
2018-06-16T03:57:06.554Z,17.50
2018-06-16T03:58:05.540Z,17.50
2018-06-16T03:59:06.328Z,17.50
2018-06-16T04:00:05.780Z,17.50
2018-06-16T04:01:05.706Z,17.50
2018-06-16T04:02:06.764Z,17.50
2018-06-16T04:03:05.984Z,17.50
2018-06-16T04:04:05.684Z,17.56
2018-06-16T04:05:05.635Z,17.50
2018-06-16T04:06:05.615Z,17.56
2018-06-16T04:07:11.534Z,17.56
2018-06-16T04:08:06.173Z,17.50
2018-06-16T04:09:06.397Z,17.50
2018-06-16T04:10:05.897Z,17.56
2018-06-16T04:11:05.977Z,17.56
2018-06-16T04:12:10.706Z,17.56
2018-06-16T04:13:06.439Z,17.56
2018-06-16T04:14:06.135Z,17.56
2018-06-16T04:15:06.203Z,17.56
2018-06-16T04:16:05.638Z,17.56
2018-06-16T04:17:06.647Z,17.56
2018-06-16T04:18:06.531Z,17.56
2018-06-16T04:19:06.147Z,17.56
2018-06-16T04:20:05.616Z,17.56
2018-06-16T04:21:06.253Z,17.56
2018-06-16T04:22:06.379Z,17.50
2018-06-16T04:23:06.031Z,17.50
2018-06-16T04:24:06.416Z,17.50
2018-06-16T04:25:06.264Z,17.50
2018-06-16T04:26:06.347Z,17.56
2018-06-16T04:27:06.751Z,17.56
2018-06-16T04:28:06.631Z,17.56
2018-06-16T04:29:05.781Z,17.56
2018-06-16T04:30:05.812Z,17.56
2018-06-16T04:31:05.861Z,17.56
2018-06-16T04:32:06.326Z,17.56
2018-06-16T04:33:06.409Z,17.56
2018-06-16T04:34:11.106Z,17.56
2018-06-16T04:35:05.871Z,17.62
2018-06-16T04:36:06.413Z,17.62
2018-06-16T04:37:06.009Z,17.62
2018-06-16T04:38:06.114Z,17.62
2018-06-16T04:39:05.777Z,17.62
2018-06-16T04:40:05.865Z,17.62
2018-06-16T04:41:05.556Z,17.62
2018-06-16T04:42:06.207Z,17.69
2018-06-16T04:43:05.910Z,17.69
2018-06-16T04:44:06.076Z,17.69
2018-06-16T04:45:06.502Z,17.69
2018-06-16T04:46:06.596Z,17.69
2018-06-16T04:47:06.208Z,17.69
2018-06-16T04:48:05.788Z,17.69
2018-06-16T04:49:06.142Z,17.75
2018-06-16T04:50:05.972Z,17.75
2018-06-16T04:51:06.079Z,17.75
2018-06-16T04:52:05.638Z,17.75
2018-06-16T04:53:06.261Z,17.75
2018-06-16T04:54:05.827Z,17.81
2018-06-16T04:55:06.024Z,17.81
2018-06-16T04:56:06.181Z,17.81
2018-06-16T04:57:06.492Z,17.81
2018-06-16T04:58:06.347Z,17.81
2018-06-16T04:59:06.296Z,17.81
2018-06-16T05:00:05.849Z,17.81
2018-06-16T05:01:06.668Z,17.81
2018-06-16T05:02:06.396Z,17.81
2018-06-16T05:03:07.407Z,17.81
2018-06-16T05:04:06.464Z,17.81
2018-06-16T05:05:06.703Z,17.88
2018-06-16T05:06:06.030Z,17.88
2018-06-16T05:07:06.125Z,17.88
2018-06-16T05:08:06.239Z,17.88
2018-06-16T05:09:06.016Z,17.88
2018-06-16T05:10:05.725Z,17.88
2018-06-16T05:11:05.699Z,17.94
2018-06-16T05:12:06.417Z,17.94
2018-06-16T05:13:06.227Z,17.94
2018-06-16T05:14:06.739Z,17.94
2018-06-16T05:15:06.607Z,17.94
2018-06-16T05:16:06.277Z,17.94
2018-06-16T05:17:10.828Z,17.94
2018-06-16T05:18:06.427Z,18.00
2018-06-16T05:19:06.359Z,17.94
2018-06-16T05:20:06.265Z,17.94
2018-06-16T05:21:05.786Z,18.00
2018-06-16T05:22:11.394Z,18.00
2018-06-16T05:23:06.110Z,18.00
2018-06-16T05:24:06.115Z,18.00
2018-06-16T05:25:06.173Z,18.00
2018-06-16T05:26:10.815Z,18.00
2018-06-16T05:27:06.502Z,18.06
2018-06-16T05:28:06.109Z,18.06
2018-06-16T05:29:05.966Z,18.06
2018-06-16T05:30:05.805Z,18.06
2018-06-16T05:31:06.097Z,18.06
2018-06-16T05:32:05.758Z,18.12
2018-06-16T05:33:05.621Z,18.12
2018-06-16T05:34:05.787Z,18.12
2018-06-16T05:35:07.149Z,18.12
2018-06-16T05:36:05.937Z,18.12
2018-06-16T05:37:10.968Z,18.19
2018-06-16T05:38:05.539Z,18.12
2018-06-16T05:39:06.337Z,18.19
2018-06-16T05:40:06.433Z,18.19
2018-06-16T05:41:06.257Z,18.19
2018-06-16T05:42:06.006Z,18.19
2018-06-16T05:43:10.675Z,18.19
2018-06-16T05:44:06.259Z,18.19
2018-06-16T05:45:05.939Z,18.19
2018-06-16T05:46:06.015Z,18.19
2018-06-16T05:47:06.188Z,18.19
2018-06-16T05:48:05.767Z,18.25
2018-06-16T05:49:05.680Z,18.25
2018-06-16T05:50:05.621Z,18.19
2018-06-16T05:51:06.813Z,18.25
2018-06-16T05:52:05.938Z,18.25
2018-06-16T05:53:05.714Z,18.25
2018-06-16T05:54:06.551Z,18.31
2018-06-16T05:55:05.537Z,18.31
2018-06-16T05:56:06.392Z,18.31
2018-06-16T05:57:06.277Z,18.31
2018-06-16T05:58:05.697Z,18.31
2018-06-16T05:59:05.906Z,18.38
2018-06-16T06:00:07.481Z,18.38
2018-06-16T06:01:05.962Z,18.38
2018-06-16T06:02:06.271Z,18.38
2018-06-16T06:03:06.007Z,18.31
2018-06-16T06:04:05.804Z,18.38
2018-06-16T06:05:06.335Z,18.38
2018-06-16T06:06:06.530Z,18.38
2018-06-16T06:07:06.534Z,18.44
2018-06-16T06:08:06.325Z,18.44
2018-06-16T06:09:06.301Z,18.38
2018-06-16T06:10:05.616Z,18.44
2018-06-16T06:11:06.474Z,18.44
2018-06-16T06:12:05.635Z,18.44
2018-06-16T06:13:06.177Z,18.44
2018-06-16T06:14:05.662Z,18.44
2018-06-16T06:15:06.230Z,18.44
2018-06-16T06:16:11.177Z,18.50
2018-06-16T06:17:06.433Z,18.50
2018-06-16T06:18:05.604Z,18.50
2018-06-16T06:19:06.683Z,18.50
2018-06-16T06:20:06.268Z,18.50
2018-06-16T06:21:06.259Z,18.50
2018-06-16T06:22:06.243Z,18.50
2018-06-16T06:23:06.414Z,18.56
2018-06-16T06:24:06.263Z,18.56
2018-06-16T06:25:05.987Z,18.62
2018-06-16T06:26:06.358Z,18.62
2018-06-16T06:27:05.734Z,18.62
2018-06-16T06:28:06.100Z,18.69
2018-06-16T06:29:06.212Z,18.69
2018-06-16T06:30:06.150Z,18.75
2018-06-16T06:31:06.194Z,18.75
2018-06-16T06:32:06.042Z,18.75
2018-06-16T06:33:06.460Z,18.75
2018-06-16T06:34:06.144Z,18.81
2018-06-16T06:35:05.695Z,18.81
2018-06-16T06:36:06.010Z,18.88
2018-06-16T06:37:05.574Z,18.88
2018-06-16T06:38:06.174Z,18.94
2018-06-16T06:39:06.248Z,18.94
2018-06-16T06:40:06.595Z,18.94
2018-06-16T06:41:06.323Z,19.00
2018-06-16T06:42:05.629Z,19.00
2018-06-16T06:43:06.195Z,19.06
2018-06-16T06:44:06.395Z,19.06
2018-06-16T06:45:06.026Z,19.06
2018-06-16T06:46:06.020Z,19.06
2018-06-16T06:47:06.561Z,19.12
2018-06-16T06:48:06.921Z,19.12
2018-06-16T06:49:06.783Z,19.12
2018-06-16T06:50:05.961Z,19.19
2018-06-16T06:51:06.429Z,19.19
2018-06-16T06:52:06.250Z,19.19
2018-06-16T06:53:06.103Z,19.25
2018-06-16T06:54:06.420Z,19.25
2018-06-16T06:55:06.046Z,19.25
2018-06-16T06:56:05.984Z,19.31
2018-06-16T06:57:05.986Z,19.31
2018-06-16T06:58:10.789Z,19.31
2018-06-16T06:59:06.420Z,19.38
2018-06-16T07:00:05.537Z,19.38
2018-06-16T07:01:06.529Z,19.44
2018-06-16T07:02:06.498Z,19.44
2018-06-16T07:03:05.700Z,19.50
2018-06-16T07:04:06.801Z,19.56
2018-06-16T07:05:05.940Z,19.56
2018-06-16T07:06:06.498Z,19.56
2018-06-16T07:07:06.607Z,19.62
2018-06-16T07:08:06.371Z,19.62
2018-06-16T07:09:06.326Z,19.69
2018-06-16T07:10:05.922Z,19.69
2018-06-16T07:11:06.052Z,19.69
2018-06-16T07:12:06.490Z,19.75
2018-06-16T07:13:06.250Z,19.81
2018-06-16T07:14:06.704Z,19.88
2018-06-16T07:15:05.926Z,19.88
2018-06-16T07:16:10.732Z,19.94
2018-06-16T07:17:06.487Z,20.00
2018-06-16T07:18:06.590Z,19.94
2018-06-16T07:19:06.608Z,20.00
2018-06-16T07:20:05.539Z,20.00
2018-06-16T07:21:05.714Z,20.06
2018-06-16T07:22:11.342Z,20.12
2018-06-16T07:23:06.686Z,20.19
2018-06-16T07:24:05.910Z,20.19
2018-06-16T07:25:06.333Z,20.19
2018-06-16T07:26:06.022Z,20.25
2018-06-16T07:27:10.933Z,20.25
2018-06-16T07:28:06.103Z,20.31
2018-06-16T07:29:05.625Z,20.31
2018-06-16T07:30:11.218Z,20.44
2018-06-16T07:31:05.944Z,20.44
2018-06-16T07:32:05.855Z,20.50
2018-06-16T07:33:06.151Z,20.50
2018-06-16T07:34:06.231Z,20.56
2018-06-16T07:35:05.748Z,20.62
2018-06-16T07:36:06.264Z,20.62
2018-06-16T07:37:06.368Z,20.69
2018-06-16T07:38:05.626Z,20.69
2018-06-16T07:39:06.007Z,20.75
2018-06-16T07:40:06.597Z,20.75
2018-06-16T07:41:06.271Z,20.75
2018-06-16T07:42:06.017Z,20.81
2018-06-16T07:43:05.598Z,20.81
2018-06-16T07:44:06.162Z,20.88
2018-06-16T07:45:06.431Z,20.94
2018-06-16T07:46:05.930Z,20.94
2018-06-16T07:47:06.335Z,21.00
2018-06-16T07:48:05.700Z,21.06
2018-06-16T07:49:05.867Z,21.06
2018-06-16T07:50:11.391Z,21.12
2018-06-16T07:51:06.100Z,21.12
2018-06-16T07:52:05.958Z,21.19
2018-06-16T07:53:06.036Z,21.25
2018-06-16T07:54:06.218Z,21.31
2018-06-16T07:55:06.129Z,21.31
2018-06-16T07:56:05.976Z,21.38
2018-06-16T07:57:05.775Z,21.44
2018-06-16T07:58:05.872Z,21.44
2018-06-16T07:59:11.349Z,21.50
2018-06-16T08:00:06.039Z,21.50
2018-06-16T08:01:05.642Z,21.56
2018-06-16T08:02:06.341Z,21.69
2018-06-16T08:03:06.039Z,21.69
2018-06-16T08:04:05.984Z,21.69
2018-06-16T08:05:06.423Z,21.75
2018-06-16T08:06:06.011Z,21.75
2018-06-16T08:07:05.860Z,21.75
2018-06-16T08:08:05.870Z,21.75
2018-06-16T08:09:11.467Z,21.81
2018-06-16T08:10:05.620Z,21.81
2018-06-16T08:11:10.673Z,21.81
2018-06-16T08:12:06.344Z,21.94
2018-06-16T08:13:05.954Z,22.06
2018-06-16T08:14:05.792Z,22.12
2018-06-16T08:15:05.705Z,22.19
2018-06-16T08:16:05.654Z,22.25
2018-06-16T08:17:05.619Z,22.31
2018-06-16T08:18:06.623Z,22.38
2018-06-16T08:19:06.444Z,22.50
2018-06-16T08:20:06.660Z,22.56
2018-06-16T08:21:06.123Z,22.69
2018-06-16T08:22:05.940Z,22.75
2018-06-16T08:23:05.614Z,22.81
2018-06-16T08:24:05.644Z,22.88
2018-06-16T08:25:06.577Z,23.00
2018-06-16T08:26:06.196Z,23.06
2018-06-16T08:27:06.014Z,23.19
2018-06-16T08:28:06.058Z,23.25
2018-06-16T08:29:05.959Z,23.31
2018-06-16T08:30:06.857Z,23.44
2018-06-16T08:31:05.465Z,23.44
2018-06-16T08:32:06.253Z,23.50
2018-06-16T08:33:06.345Z,23.56
2018-06-16T08:34:05.698Z,23.56
2018-06-16T08:35:11.287Z,23.56
2018-06-16T08:36:05.815Z,23.62
2018-06-16T08:37:05.874Z,23.69
2018-06-16T08:38:06.146Z,23.75
2018-06-16T08:39:05.796Z,23.81
2018-06-16T08:40:06.671Z,23.88
2018-06-16T08:41:06.035Z,23.94
2018-06-16T08:42:06.209Z,24.00
2018-06-16T08:43:05.981Z,24.06
2018-06-16T08:44:06.277Z,24.12
2018-06-16T08:45:06.645Z,24.19
2018-06-16T08:46:06.600Z,24.25
2018-06-16T08:47:06.255Z,24.19
2018-06-16T08:48:06.647Z,24.25
2018-06-16T08:49:06.574Z,24.31
2018-06-16T08:50:06.451Z,24.31
2018-06-16T08:51:06.304Z,24.31
2018-06-16T08:52:06.338Z,24.38
2018-06-16T08:53:05.720Z,24.44
2018-06-16T08:54:05.932Z,24.38
2018-06-16T08:55:06.846Z,24.44
2018-06-16T08:56:05.886Z,24.44
2018-06-16T08:57:05.708Z,24.50
2018-06-16T08:58:05.860Z,24.50
2018-06-16T08:59:06.237Z,24.50
2018-06-16T09:00:06.515Z,24.50
2018-06-16T09:01:06.095Z,24.50
2018-06-16T09:02:06.480Z,24.50
2018-06-16T09:03:06.353Z,24.50
2018-06-16T09:04:07.700Z,24.56
2018-06-16T09:05:06.106Z,24.56
2018-06-16T09:06:05.973Z,24.56
2018-06-16T09:07:05.878Z,24.62
2018-06-16T09:08:05.880Z,24.62
2018-06-16T09:09:06.268Z,24.69
2018-06-16T09:10:06.650Z,24.75
2018-06-16T09:11:06.349Z,24.81
2018-06-16T09:12:06.128Z,24.81
2018-06-16T09:13:06.422Z,24.81
2018-06-16T09:14:11.802Z,24.88
2018-06-16T09:15:06.032Z,24.88
2018-06-16T09:16:05.874Z,24.81
2018-06-16T09:17:10.819Z,24.81
2018-06-16T09:18:05.769Z,24.81
2018-06-16T09:19:05.704Z,24.88
2018-06-16T09:20:05.800Z,24.88
2018-06-16T09:21:06.366Z,24.94
2018-06-16T09:22:06.728Z,25.00
2018-06-16T09:23:06.458Z,25.00
2018-06-16T09:24:05.917Z,25.00
2018-06-16T09:25:05.796Z,25.00
2018-06-16T09:26:06.265Z,25.00
2018-06-16T09:27:06.109Z,25.06
2018-06-16T09:28:06.771Z,25.12
2018-06-16T09:29:05.708Z,25.12
2018-06-16T09:30:06.431Z,25.19
2018-06-16T09:31:05.934Z,25.25
2018-06-16T09:32:05.965Z,25.31
2018-06-16T09:33:06.676Z,25.31
2018-06-16T09:34:06.205Z,25.38
2018-06-16T09:35:06.094Z,25.38
2018-06-16T09:36:06.019Z,25.44
2018-06-16T09:37:05.882Z,25.44
2018-06-16T09:38:06.072Z,25.50
2018-06-16T09:39:06.569Z,25.56
2018-06-16T09:40:05.941Z,25.62
2018-06-16T09:41:05.729Z,25.56
2018-06-16T09:42:05.676Z,25.56
2018-06-16T09:43:06.042Z,25.56
2018-06-16T09:44:05.781Z,25.56
2018-06-16T09:45:06.435Z,25.50
2018-06-16T09:46:05.620Z,25.50
2018-06-16T09:47:06.492Z,25.56
2018-06-16T09:48:05.854Z,25.62
2018-06-16T09:49:05.707Z,25.62
2018-06-16T09:50:05.784Z,25.69
2018-06-16T09:51:05.786Z,25.69
2018-06-16T09:52:05.696Z,25.69
2018-06-16T09:53:10.705Z,25.75
2018-06-16T09:54:06.256Z,25.75
2018-06-16T09:55:06.286Z,25.81
2018-06-16T09:56:06.233Z,25.81
2018-06-16T09:57:05.784Z,25.88
2018-06-16T09:58:05.862Z,25.88
2018-06-16T09:59:05.570Z,25.88
2018-06-16T10:00:05.709Z,25.94
2018-06-16T10:01:06.105Z,25.94
2018-06-16T10:02:06.184Z,25.94
2018-06-16T10:03:06.349Z,25.94
2018-06-16T10:04:10.884Z,25.94
2018-06-16T10:05:06.541Z,26.00
2018-06-16T10:06:06.559Z,26.06
2018-06-16T10:07:05.857Z,26.12
2018-06-16T10:08:05.958Z,26.12
2018-06-16T10:09:06.019Z,26.19
2018-06-16T10:10:05.616Z,26.19
2018-06-16T10:11:06.813Z,26.19
2018-06-16T10:12:05.958Z,26.25
2018-06-16T10:13:05.667Z,26.25
2018-06-16T10:14:05.649Z,26.25
2018-06-16T10:15:06.559Z,26.31
2018-06-16T10:16:05.770Z,26.38
2018-06-16T10:17:05.634Z,26.31
2018-06-16T10:18:06.630Z,26.38
2018-06-16T10:19:06.725Z,26.38
2018-06-16T10:20:05.941Z,26.44
2018-06-16T10:21:05.875Z,26.44
2018-06-16T10:22:05.519Z,26.50
2018-06-16T10:23:05.758Z,26.50
2018-06-16T10:24:05.619Z,26.50
2018-06-16T10:25:05.778Z,26.50
2018-06-16T10:26:06.728Z,26.50
2018-06-16T10:27:05.941Z,26.44
2018-06-16T10:28:05.899Z,26.44
2018-06-16T10:29:06.294Z,26.44
2018-06-16T10:30:06.857Z,26.38
2018-06-16T10:31:06.417Z,26.38
2018-06-16T10:32:06.424Z,26.44
2018-06-16T10:33:11.022Z,26.50
2018-06-16T10:34:06.377Z,26.50
2018-06-16T10:35:05.691Z,26.50
2018-06-16T10:36:05.863Z,26.50
2018-06-16T10:37:06.319Z,26.50
2018-06-16T10:38:06.415Z,26.50
2018-06-16T10:39:06.183Z,26.50
2018-06-16T10:40:05.871Z,26.56
2018-06-16T10:41:06.628Z,26.56
2018-06-16T10:42:06.335Z,26.62
2018-06-16T10:43:05.789Z,26.62
2018-06-16T10:44:06.034Z,26.69
2018-06-16T10:45:05.726Z,26.69
2018-06-16T10:46:11.485Z,26.69
2018-06-16T10:47:06.027Z,26.69
2018-06-16T10:48:10.636Z,26.69
2018-06-16T10:49:06.438Z,26.75
2018-06-16T10:50:05.507Z,26.75
2018-06-16T10:51:06.115Z,26.75
2018-06-16T10:52:05.785Z,26.81
2018-06-16T10:53:06.282Z,26.81
2018-06-16T10:54:11.285Z,26.81
2018-06-16T10:55:05.945Z,26.81
2018-06-16T10:56:05.524Z,26.81
2018-06-16T10:57:06.723Z,26.88
2018-06-16T10:58:06.020Z,26.88
2018-06-16T10:59:05.933Z,26.88
2018-06-16T11:00:06.097Z,26.94
2018-06-16T11:01:11.033Z,26.94
2018-06-16T11:02:11.200Z,26.94
2018-06-16T11:03:05.940Z,26.94
2018-06-16T11:04:06.249Z,26.94
2018-06-16T11:05:06.030Z,26.94
2018-06-16T11:06:05.789Z,26.94
2018-06-16T11:07:05.737Z,26.94
2018-06-16T11:08:06.407Z,26.94
2018-06-16T11:09:06.346Z,26.94
2018-06-16T11:10:06.589Z,26.94
2018-06-16T11:11:05.700Z,27.00
2018-06-16T11:12:05.877Z,27.00
2018-06-16T11:13:06.033Z,27.00
2018-06-16T11:14:06.325Z,27.00
2018-06-16T11:15:05.950Z,27.00
2018-06-16T11:16:05.854Z,27.00
2018-06-16T11:17:07.020Z,27.06
2018-06-16T11:18:06.513Z,27.06
2018-06-16T11:19:06.243Z,27.06
2018-06-16T11:20:05.860Z,27.06
2018-06-16T11:21:05.795Z,27.06
2018-06-16T11:22:05.864Z,27.06
2018-06-16T11:23:05.897Z,27.12
2018-06-16T11:24:06.416Z,27.12
2018-06-16T11:25:06.758Z,27.12
2018-06-16T11:26:06.630Z,27.12
2018-06-16T11:27:06.396Z,27.19
2018-06-16T11:28:05.540Z,27.19
2018-06-16T11:29:06.081Z,27.19
2018-06-16T11:30:06.074Z,27.19
2018-06-16T11:31:06.513Z,27.19
2018-06-16T11:32:06.819Z,27.19
2018-06-16T11:33:06.176Z,27.25
2018-06-16T11:34:05.738Z,27.25
2018-06-16T11:35:05.870Z,27.25
2018-06-16T11:36:06.013Z,27.25
2018-06-16T11:37:06.111Z,27.25
2018-06-16T11:38:05.706Z,27.25
2018-06-16T11:39:06.672Z,27.25
2018-06-16T11:40:06.516Z,27.25
2018-06-16T11:41:06.433Z,27.25
2018-06-16T11:42:05.964Z,27.31
2018-06-16T11:43:05.786Z,27.31
2018-06-16T11:44:05.783Z,27.31
2018-06-16T11:45:06.504Z,27.38
2018-06-16T11:46:10.955Z,27.38
2018-06-16T11:47:05.859Z,27.38
2018-06-16T11:48:06.387Z,27.44
2018-06-16T11:49:06.392Z,27.44
2018-06-16T11:50:06.189Z,27.44
2018-06-16T11:51:06.019Z,27.44
2018-06-16T11:52:05.798Z,27.50
2018-06-16T11:53:10.752Z,27.50
2018-06-16T11:54:06.354Z,27.50
2018-06-16T11:55:06.027Z,27.56
2018-06-16T11:56:11.082Z,27.56
2018-06-16T11:57:06.514Z,27.56
2018-06-16T11:58:06.344Z,27.56
2018-06-16T11:59:05.951Z,27.56
2018-06-16T12:00:06.095Z,27.62
2018-06-16T12:01:05.902Z,27.62
2018-06-16T12:02:05.793Z,27.62
2018-06-16T12:03:06.454Z,27.62
2018-06-16T12:04:06.276Z,27.69
2018-06-16T12:05:06.020Z,27.69
2018-06-16T12:06:06.341Z,27.69
2018-06-16T12:07:06.267Z,27.69
2018-06-16T12:08:06.352Z,27.69
2018-06-16T12:09:06.234Z,27.69
2018-06-16T12:10:06.702Z,27.75
2018-06-16T12:11:06.259Z,27.75
2018-06-16T12:12:06.390Z,27.81
2018-06-16T12:13:10.880Z,27.81
2018-06-16T12:14:06.419Z,27.81
2018-06-16T12:15:05.663Z,27.88
2018-06-16T12:16:06.699Z,27.88
2018-06-16T12:17:06.346Z,27.88
2018-06-16T12:18:05.943Z,27.94
2018-06-16T12:19:05.632Z,27.94
2018-06-16T12:20:06.099Z,27.94
2018-06-16T12:21:06.065Z,27.94
2018-06-16T12:22:05.879Z,27.88
2018-06-16T12:23:05.473Z,27.81
2018-06-16T12:24:05.700Z,27.81
2018-06-16T12:25:06.336Z,27.81
2018-06-16T12:26:06.498Z,27.81
2018-06-16T12:27:06.510Z,27.81
2018-06-16T12:28:06.631Z,27.81
2018-06-16T12:29:06.123Z,27.81
2018-06-16T12:30:06.037Z,27.88
2018-06-16T12:31:06.422Z,27.88
2018-06-16T12:32:06.588Z,27.88
2018-06-16T12:33:06.097Z,27.94
2018-06-16T12:34:06.342Z,27.94
2018-06-16T12:35:06.358Z,28.00
2018-06-16T12:36:05.940Z,28.00
2018-06-16T12:37:05.551Z,28.00
2018-06-16T12:38:05.964Z,28.06
2018-06-16T12:39:05.973Z,28.06
2018-06-16T12:40:06.661Z,28.06
2018-06-16T12:41:05.751Z,28.06
2018-06-16T12:42:05.635Z,28.06
2018-06-16T12:43:05.627Z,28.06
2018-06-16T12:44:11.228Z,28.12
2018-06-16T12:45:05.937Z,28.12
2018-06-16T12:46:05.929Z,28.12
2018-06-16T12:47:06.681Z,28.12
2018-06-16T12:48:06.228Z,28.12
2018-06-16T12:49:07.143Z,28.19
2018-06-16T12:50:06.505Z,28.19
2018-06-16T12:51:05.816Z,28.19
2018-06-16T12:52:06.276Z,28.19